AAL77C KCLT-KBOS
Flight info
| Callsign | AAL77C |
|---|---|
| Flight time | 1h 43m |
| Altitude | 35000 |
| Route | BARMY5 RDU NOWAE Q87 GEARS BBOBO Q22 RBV Q419 JFK ROBUC3 |
| Aircraft | A321/M-SDE3FGHIRWY/LB1 |
Departure
| Time | 2026-05-06 23:35 |
|---|---|
| Airport | Charlotte Douglas International Airport (KCLT) |
Arrival
| Time | 2026-05-07 01:18 |
|---|---|
| Airport | Boston Logan International Airport (KBOS) |
| Time | Latitude | Longitude | Altitude | Speed | Heading |
|---|---|---|---|---|---|
| 2026-05-06 22:58 | 35.22076 | -80.94775 | 717 ft | 0 kts | 166° |
| 2026-05-06 23:24 | 35.22092 | -80.94780 | 719 ft | 4 kts | 170° |
| 2026-05-06 23:24 | 35.22110 | -80.94781 | 720 ft | 4 kts | 204° |
| 2026-05-06 23:24 | 35.22125 | -80.94761 | 717 ft | 4 kts | 260° |
| 2026-05-06 23:24 | 35.22126 | -80.94746 | 718 ft | 0 kts | 267° |
| 2026-05-06 23:29 | 35.22126 | -80.94747 | 718 ft | 1 kts | 267° |
| 2026-05-06 23:29 | 35.22125 | -80.94762 | 717 ft | 3 kts | 267° |
| 2026-05-06 23:30 | 35.22124 | -80.94794 | 717 ft | 5 kts | 268° |
| 2026-05-06 23:30 | 35.22124 | -80.94842 | 717 ft | 7 kts | 270° |
| 2026-05-06 23:30 | 35.22125 | -80.94904 | 715 ft | 8 kts | 276° |
| 2026-05-06 23:30 | 35.22165 | -80.94957 | 720 ft | 9 kts | 329° |
| 2026-05-06 23:31 | 35.22229 | -80.94986 | 717 ft | 10 kts | 359° |
| 2026-05-06 23:31 | 35.22299 | -80.94987 | 717 ft | 11 kts | 356° |
| 2026-05-06 23:31 | 35.22383 | -80.94995 | 714 ft | 13 kts | 355° |
| 2026-05-06 23:31 | 35.22473 | -80.95004 | 715 ft | 14 kts | 356° |
| 2026-05-06 23:32 | 35.22573 | -80.95013 | 714 ft | 15 kts | 356° |
| 2026-05-06 23:32 | 35.22666 | -80.95022 | 713 ft | 6 kts | 348° |
| 2026-05-06 23:32 | 35.22695 | -80.95058 | 713 ft | 7 kts | 283° |
| 2026-05-06 23:32 | 35.22673 | -80.95107 | 712 ft | 7 kts | 219° |
| 2026-05-06 23:33 | 35.22654 | -80.95162 | 710 ft | 4 kts | 263° |
| 2026-05-06 23:33 | 35.22650 | -80.95206 | 714 ft | 7 kts | 264° |
| 2026-05-06 23:33 | 35.22632 | -80.95274 | 712 ft | 10 kts | 232° |
| 2026-05-06 23:33 | 35.22579 | -80.95300 | 713 ft | 0 kts | 182° |
| 2026-05-06 23:34 | 35.22496 | -80.95295 | 713 ft | 43 kts | 176° |
| 2026-05-06 23:34 | 35.22146 | -80.95269 | 717 ft | 98 kts | 176° |
| 2026-05-06 23:34 | 35.21656 | -80.95255 | 721 ft | 136 kts | 178° |
| 2026-05-06 23:34 | 35.20687 | -80.95176 | 833 ft | 175 kts | 174° |
| 2026-05-06 23:35 | 35.19419 | -80.95020 | 1383 ft | 190 kts | 179° |
| 2026-05-06 23:35 | 35.18079 | -80.94911 | 2133 ft | 196 kts | 184° |
| 2026-05-06 23:35 | 35.16726 | -80.94807 | 2800 ft | 208 kts | 183° |
| 2026-05-06 23:35 | 35.15259 | -80.94419 | 3465 ft | 231 kts | 164° |
| 2026-05-06 23:36 | 35.13854 | -80.93387 | 4201 ft | 240 kts | 146° |
| 2026-05-06 23:36 | 35.12747 | -80.91820 | 4915 ft | 242 kts | 133° |
| 2026-05-06 23:36 | 35.11773 | -80.90189 | 5539 ft | 240 kts | 135° |
| 2026-05-06 23:36 | 35.10558 | -80.88671 | 5574 ft | 262 kts | 140° |
| 2026-05-06 23:37 | 35.09574 | -80.86690 | 5553 ft | 291 kts | 109° |
| 2026-05-06 23:37 | 35.09531 | -80.84185 | 5561 ft | 304 kts | 76° |
| 2026-05-06 23:37 | 35.10175 | -80.81727 | 5733 ft | 305 kts | 71° |
| 2026-05-06 23:37 | 35.10887 | -80.79257 | 6110 ft | 310 kts | 70° |
| 2026-05-06 23:38 | 35.11617 | -80.76771 | 6482 ft | 312 kts | 70° |
| 2026-05-06 23:38 | 35.12351 | -80.74267 | 6834 ft | 314 kts | 70° |
| 2026-05-06 23:38 | 35.13085 | -80.71740 | 7191 ft | 316 kts | 70° |
| 2026-05-06 23:38 | 35.13814 | -80.69199 | 7552 ft | 319 kts | 70° |
| 2026-05-06 23:39 | 35.14540 | -80.66634 | 7925 ft | 320 kts | 70° |
| 2026-05-06 23:39 | 35.15264 | -80.64065 | 8331 ft | 321 kts | 70° |
| 2026-05-06 23:39 | 35.15995 | -80.61471 | 8757 ft | 323 kts | 70° |
| 2026-05-06 23:39 | 35.16728 | -80.58866 | 9178 ft | 324 kts | 70° |
| 2026-05-06 23:40 | 35.17464 | -80.56252 | 9610 ft | 327 kts | 70° |
| 2026-05-06 23:40 | 35.18204 | -80.53617 | 10023 ft | 330 kts | 69° |
| 2026-05-06 23:40 | 35.18961 | -80.50925 | 10419 ft | 340 kts | 70° |
| 2026-05-06 23:40 | 35.19743 | -80.48146 | 10833 ft | 350 kts | 70° |
| 2026-05-06 23:41 | 35.20544 | -80.45307 | 11238 ft | 360 kts | 70° |
| 2026-05-06 23:41 | 35.21370 | -80.42377 | 11656 ft | 369 kts | 69° |
| 2026-05-06 23:41 | 35.22215 | -80.39376 | 12075 ft | 378 kts | 69° |
| 2026-05-06 23:41 | 35.23081 | -80.36290 | 12506 ft | 387 kts | 70° |
| 2026-05-06 23:42 | 35.23961 | -80.33144 | 12951 ft | 395 kts | 69° |
| 2026-05-06 23:42 | 35.24855 | -80.29941 | 13366 ft | 403 kts | 69° |
| 2026-05-06 23:42 | 35.25770 | -80.26653 | 13781 ft | 411 kts | 69° |
| 2026-05-06 23:42 | 35.26696 | -80.23318 | 14261 ft | 415 kts | 69° |
| 2026-05-06 23:43 | 35.27626 | -80.19964 | 14744 ft | 419 kts | 69° |
| 2026-05-06 23:43 | 35.28570 | -80.16568 | 15232 ft | 423 kts | 69° |
| 2026-05-06 23:43 | 35.29520 | -80.13155 | 15728 ft | 427 kts | 68° |
| 2026-05-06 23:43 | 35.30480 | -80.09695 | 16218 ft | 431 kts | 68° |
| 2026-05-06 23:44 | 35.31434 | -80.06251 | 16704 ft | 434 kts | 68° |
| 2026-05-06 23:44 | 35.32410 | -80.02732 | 17185 ft | 438 kts | 68° |
| 2026-05-06 23:44 | 35.33391 | -79.99191 | 17663 ft | 442 kts | 68° |
| 2026-05-06 23:44 | 35.34379 | -79.95614 | 18204 ft | 444 kts | 68° |
| 2026-05-06 23:45 | 35.35361 | -79.92044 | 18651 ft | 447 kts | 68° |
| 2026-05-06 23:45 | 35.36359 | -79.88408 | 19095 ft | 450 kts | 68° |
| 2026-05-06 23:45 | 35.37356 | -79.84771 | 19502 ft | 453 kts | 68° |
| 2026-05-06 23:45 | 35.38374 | -79.81109 | 19932 ft | 455 kts | 67° |
| 2026-05-06 23:46 | 35.39433 | -79.77431 | 20411 ft | 457 kts | 67° |
| 2026-05-06 23:46 | 35.40507 | -79.73773 | 20866 ft | 459 kts | 67° |
| 2026-05-06 23:46 | 35.41602 | -79.70075 | 21286 ft | 461 kts | 67° |
| 2026-05-06 23:46 | 35.42697 | -79.66374 | 21696 ft | 464 kts | 67° |
| 2026-05-06 23:47 | 35.43794 | -79.62630 | 22088 ft | 468 kts | 67° |
| 2026-05-06 23:47 | 35.44890 | -79.58845 | 22456 ft | 471 kts | 67° |
| 2026-05-06 23:47 | 35.45895 | -79.55348 | 22800 ft | 474 kts | 68° |
| 2026-05-06 23:47 | 35.47003 | -79.51484 | 23172 ft | 477 kts | 68° |
| 2026-05-06 23:48 | 35.48009 | -79.47969 | 23493 ft | 479 kts | 68° |
| 2026-05-06 23:48 | 35.49075 | -79.44236 | 23782 ft | 482 kts | 68° |
| 2026-05-06 23:48 | 35.49919 | -79.41286 | 24007 ft | 483 kts | 68° |
| 2026-05-06 23:48 | 35.51033 | -79.37392 | 24376 ft | 484 kts | 68° |
| 2026-05-06 23:49 | 35.52157 | -79.33452 | 24694 ft | 486 kts | 68° |
| 2026-05-06 23:49 | 35.53277 | -79.29530 | 25005 ft | 488 kts | 68° |
| 2026-05-06 23:49 | 35.54404 | -79.25586 | 25314 ft | 490 kts | 68° |
| 2026-05-06 23:49 | 35.55504 | -79.21745 | 25596 ft | 492 kts | 68° |
| 2026-05-06 23:50 | 35.56643 | -79.17765 | 25890 ft | 495 kts | 68° |
| 2026-05-06 23:50 | 35.59429 | -79.10067 | 26454 ft | 492 kts | 53° |
| 2026-05-06 23:50 | 35.61453 | -79.06688 | 26728 ft | 489 kts | 44° |
| 2026-05-06 23:51 | 35.63828 | -79.03753 | 26921 ft | 484 kts | 36° |
| 2026-05-06 23:51 | 35.66356 | -79.01028 | 26976 ft | 483 kts | 36° |
| 2026-05-06 23:51 | 35.68885 | -78.98304 | 26955 ft | 483 kts | 36° |
| 2026-05-06 23:51 | 35.71418 | -78.95569 | 26967 ft | 483 kts | 36° |
| 2026-05-06 23:52 | 35.73090 | -78.93760 | 26967 ft | 483 kts | 36° |
| 2026-05-06 23:52 | 35.76435 | -78.90126 | 26959 ft | 486 kts | 36° |
| 2026-05-06 23:52 | 35.78139 | -78.88272 | 26957 ft | 487 kts | 36° |
| 2026-05-06 23:52 | 35.80677 | -78.85509 | 26953 ft | 487 kts | 36° |
| 2026-05-06 23:53 | 35.83219 | -78.82738 | 26948 ft | 487 kts | 36° |
| 2026-05-06 23:53 | 35.85745 | -78.79982 | 26946 ft | 488 kts | 36° |
| 2026-05-06 23:53 | 35.87946 | -78.77583 | 26973 ft | 487 kts | 36° |
| 2026-05-06 23:53 | 35.90507 | -78.74839 | 26949 ft | 487 kts | 35° |
| 2026-05-06 23:54 | 35.93086 | -78.72131 | 26953 ft | 487 kts | 34° |
| 2026-05-06 23:54 | 35.95705 | -78.69417 | 26953 ft | 486 kts | 34° |
| 2026-05-06 23:54 | 35.98293 | -78.66740 | 26957 ft | 486 kts | 34° |
| 2026-05-06 23:54 | 36.00896 | -78.64036 | 27099 ft | 488 kts | 34° |
| 2026-05-06 23:55 | 36.03486 | -78.61329 | 27385 ft | 490 kts | 34° |
| 2026-05-06 23:55 | 36.06103 | -78.58580 | 27654 ft | 493 kts | 35° |
| 2026-05-06 23:55 | 36.08702 | -78.55838 | 27925 ft | 495 kts | 35° |
| 2026-05-06 23:55 | 36.11338 | -78.53049 | 28174 ft | 497 kts | 35° |
| 2026-05-06 23:56 | 36.13967 | -78.50262 | 28425 ft | 499 kts | 35° |
| 2026-05-06 23:56 | 36.16613 | -78.47455 | 28687 ft | 501 kts | 35° |
| 2026-05-06 23:56 | 36.19231 | -78.44678 | 28965 ft | 503 kts | 35° |
| 2026-05-06 23:56 | 36.21928 | -78.41819 | 29150 ft | 507 kts | 36° |
| 2026-05-06 23:57 | 36.24614 | -78.38974 | 29389 ft | 510 kts | 36° |
| 2026-05-06 23:57 | 36.27328 | -78.36095 | 29619 ft | 512 kts | 36° |
| 2026-05-06 23:57 | 36.30028 | -78.33226 | 29946 ft | 513 kts | 36° |
| 2026-05-06 23:57 | 36.32733 | -78.30346 | 30252 ft | 512 kts | 35° |
| 2026-05-06 23:58 | 36.35450 | -78.27451 | 30543 ft | 512 kts | 35° |
| 2026-05-06 23:58 | 36.38128 | -78.24591 | 30821 ft | 513 kts | 35° |
| 2026-05-06 23:58 | 36.40801 | -78.21629 | 31118 ft | 514 kts | 37° |
| 2026-05-06 23:58 | 36.43419 | -78.18597 | 31355 ft | 516 kts | 37° |
| 2026-05-06 23:59 | 36.46018 | -78.15493 | 31598 ft | 517 kts | 38° |
| 2026-05-06 23:59 | 36.48591 | -78.12383 | 31856 ft | 518 kts | 37° |
| 2026-05-06 23:59 | 36.51179 | -78.09258 | 32126 ft | 518 kts | 37° |
| 2026-05-06 23:59 | 36.53775 | -78.06151 | 32386 ft | 518 kts | 36° |
| 2026-05-07 00:00 | 36.56389 | -78.03053 | 32713 ft | 518 kts | 36° |
| 2026-05-07 00:00 | 36.59006 | -77.99971 | 32978 ft | 518 kts | 35° |
| 2026-05-07 00:00 | 36.61619 | -77.96902 | 33238 ft | 518 kts | 35° |
| 2026-05-07 00:00 | 36.64244 | -77.93814 | 33508 ft | 519 kts | 33° |
| 2026-05-07 00:01 | 36.66860 | -77.90729 | 33743 ft | 519 kts | 33° |
| 2026-05-07 00:01 | 36.69493 | -77.87615 | 33994 ft | 520 kts | 33° |
| 2026-05-07 00:01 | 36.72113 | -77.84508 | 34207 ft | 520 kts | 33° |
| 2026-05-07 00:01 | 36.74755 | -77.81370 | 34431 ft | 519 kts | 33° |
| 2026-05-07 00:02 | 36.77376 | -77.78251 | 34659 ft | 519 kts | 33° |
| 2026-05-07 00:02 | 36.79981 | -77.75151 | 34867 ft | 519 kts | 33° |
| 2026-05-07 00:02 | 36.85199 | -77.68945 | 34981 ft | 517 kts | 32° |
| 2026-05-07 00:03 | 36.90395 | -77.62760 | 34957 ft | 517 kts | 32° |
| 2026-05-07 00:03 | 36.95508 | -77.56643 | 34937 ft | 514 kts | 32° |
| 2026-05-07 00:04 | 37.00634 | -77.50493 | 34940 ft | 512 kts | 32° |
| 2026-05-07 00:04 | 37.05740 | -77.44371 | 34970 ft | 512 kts | 32° |
| 2026-05-07 00:05 | 37.08447 | -77.41384 | 34965 ft | 501 kts | 24° |
| 2026-05-07 00:05 | 37.11291 | -77.39036 | 34960 ft | 485 kts | 15° |
| 2026-05-07 00:05 | 37.14283 | -77.37260 | 34956 ft | 469 kts | 7° |
| 2026-05-07 00:05 | 37.17339 | -77.35919 | 34954 ft | 464 kts | 5° |
| 2026-05-07 00:06 | 37.23452 | -77.33288 | 34954 ft | 466 kts | 5° |
| 2026-05-07 00:06 | 37.29487 | -77.30669 | 34973 ft | 467 kts | 5° |
| 2026-05-07 00:07 | 37.35631 | -77.27987 | 34948 ft | 468 kts | 5° |
| 2026-05-07 00:07 | 37.41774 | -77.25309 | 34937 ft | 468 kts | 5° |
| 2026-05-07 00:08 | 37.47937 | -77.22617 | 34921 ft | 468 kts | 5° |
| 2026-05-07 00:08 | 37.54094 | -77.19930 | 34952 ft | 468 kts | 5° |
| 2026-05-07 00:09 | 37.60253 | -77.17245 | 34941 ft | 469 kts | 5° |
| 2026-05-07 00:09 | 37.66431 | -77.14524 | 34937 ft | 470 kts | 6° |
| 2026-05-07 00:10 | 37.72502 | -77.11060 | 34933 ft | 488 kts | 16° |
| 2026-05-07 00:10 | 37.78380 | -77.06991 | 34929 ft | 489 kts | 16° |
| 2026-05-07 00:11 | 37.84336 | -77.02862 | 34931 ft | 489 kts | 16° |
| 2026-05-07 00:11 | 37.90306 | -76.98721 | 34930 ft | 489 kts | 16° |
| 2026-05-07 00:12 | 37.96314 | -76.94553 | 34925 ft | 490 kts | 16° |
| 2026-05-07 00:12 | 38.02290 | -76.90388 | 34906 ft | 490 kts | 16° |
| 2026-05-07 00:13 | 38.08263 | -76.86221 | 34886 ft | 491 kts | 16° |
| 2026-05-07 00:13 | 38.14249 | -76.82045 | 34905 ft | 490 kts | 16° |
| 2026-05-07 00:14 | 38.20227 | -76.77857 | 34929 ft | 491 kts | 16° |
| 2026-05-07 00:14 | 38.26074 | -76.73226 | 34915 ft | 510 kts | 28° |
| 2026-05-07 00:15 | 38.31519 | -76.67344 | 34909 ft | 513 kts | 29° |
| 2026-05-07 00:15 | 38.36958 | -76.61436 | 34917 ft | 515 kts | 29° |
| 2026-05-07 00:16 | 38.42421 | -76.55506 | 34890 ft | 515 kts | 29° |
| 2026-05-07 00:16 | 38.47890 | -76.49624 | 34871 ft | 515 kts | 28° |
| 2026-05-07 00:17 | 38.53392 | -76.43747 | 34899 ft | 515 kts | 28° |
| 2026-05-07 00:17 | 38.58877 | -76.37861 | 34900 ft | 515 kts | 28° |
| 2026-05-07 00:18 | 38.64350 | -76.31952 | 34899 ft | 516 kts | 29° |
| 2026-05-07 00:18 | 38.69839 | -76.26006 | 34896 ft | 517 kts | 29° |
| 2026-05-07 00:19 | 38.75318 | -76.20059 | 34899 ft | 517 kts | 29° |
| 2026-05-07 00:19 | 38.80813 | -76.14088 | 34893 ft | 518 kts | 29° |
| 2026-05-07 00:20 | 38.86308 | -76.08110 | 34897 ft | 518 kts | 29° |
| 2026-05-07 00:20 | 38.91804 | -76.02118 | 34900 ft | 518 kts | 29° |
| 2026-05-07 00:21 | 38.97284 | -75.96116 | 34904 ft | 520 kts | 30° |
| 2026-05-07 00:21 | 39.02654 | -75.89851 | 34882 ft | 523 kts | 32° |
| 2026-05-07 00:22 | 39.07944 | -75.83393 | 34875 ft | 525 kts | 32° |
| 2026-05-07 00:22 | 39.13255 | -75.76944 | 34850 ft | 524 kts | 32° |
| 2026-05-07 00:23 | 39.18590 | -75.70563 | 34893 ft | 524 kts | 31° |
| 2026-05-07 00:23 | 39.23939 | -75.64182 | 34887 ft | 524 kts | 31° |
| 2026-05-07 00:24 | 39.29200 | -75.57872 | 34882 ft | 524 kts | 31° |
| 2026-05-07 00:24 | 39.34589 | -75.51378 | 34945 ft | 524 kts | 31° |
| 2026-05-07 00:25 | 39.39917 | -75.44932 | 34854 ft | 523 kts | 31° |
| 2026-05-07 00:25 | 39.44364 | -75.39554 | 34855 ft | 524 kts | 31° |
| 2026-05-07 00:26 | 39.50553 | -75.32066 | 34878 ft | 524 kts | 31° |
| 2026-05-07 00:26 | 39.55881 | -75.25609 | 34889 ft | 525 kts | 31° |
| 2026-05-07 00:27 | 39.61207 | -75.19123 | 34881 ft | 525 kts | 31° |
| 2026-05-07 00:27 | 39.66522 | -75.12621 | 34878 ft | 526 kts | 31° |
| 2026-05-07 00:28 | 39.71905 | -75.06218 | 34859 ft | 522 kts | 29° |
| 2026-05-07 00:28 | 39.77403 | -75.00122 | 34875 ft | 519 kts | 28° |
| 2026-05-07 00:29 | 39.82028 | -74.95049 | 34883 ft | 519 kts | 28° |
| 2026-05-07 00:30 | 39.93098 | -74.83168 | 34879 ft | 509 kts | 22° |
| 2026-05-07 00:30 | 39.98959 | -74.77754 | 34847 ft | 506 kts | 21° |
| 2026-05-07 00:31 | 40.04479 | -74.72191 | 34842 ft | 526 kts | 33° |
| 2026-05-07 00:31 | 40.09479 | -74.65094 | 34844 ft | 533 kts | 36° |
| 2026-05-07 00:32 | 40.14455 | -74.57895 | 34863 ft | 534 kts | 37° |
| 2026-05-07 00:32 | 40.19475 | -74.50648 | 34855 ft | 532 kts | 33° |
| 2026-05-07 00:33 | 40.22164 | -74.47428 | 34856 ft | 518 kts | 26° |
| 2026-05-07 00:33 | 40.24919 | -74.44485 | 34867 ft | 518 kts | 26° |
| 2026-05-07 00:33 | 40.30518 | -74.38534 | 34878 ft | 519 kts | 26° |
| 2026-05-07 00:34 | 40.36109 | -74.32564 | 34830 ft | 518 kts | 26° |
| 2026-05-07 00:34 | 40.41701 | -74.26570 | 34843 ft | 519 kts | 26° |
| 2026-05-07 00:35 | 40.47244 | -74.20609 | 34913 ft | 519 kts | 26° |
| 2026-05-07 00:35 | 40.52660 | -74.14214 | 34871 ft | 536 kts | 39° |
| 2026-05-07 00:36 | 40.54859 | -74.10265 | 34865 ft | 551 kts | 51° |
| 2026-05-07 00:36 | 40.56607 | -74.05645 | 34855 ft | 563 kts | 63° |
| 2026-05-07 00:36 | 40.58964 | -73.95751 | 34851 ft | 567 kts | 68° |
| 2026-05-07 00:37 | 40.61267 | -73.85824 | 34868 ft | 566 kts | 68° |
| 2026-05-07 00:37 | 40.62559 | -73.81017 | 34849 ft | 547 kts | 59° |
| 2026-05-07 00:37 | 40.64246 | -73.76677 | 34621 ft | 530 kts | 49° |
| 2026-05-07 00:38 | 40.66345 | -73.72727 | 34202 ft | 515 kts | 40° |
| 2026-05-07 00:38 | 40.68713 | -73.69208 | 33426 ft | 514 kts | 37° |
| 2026-05-07 00:38 | 40.71147 | -73.65697 | 32586 ft | 519 kts | 37° |
| 2026-05-07 00:38 | 40.73567 | -73.62185 | 31713 ft | 525 kts | 39° |
| 2026-05-07 00:39 | 40.76029 | -73.58586 | 30898 ft | 530 kts | 39° |
| 2026-05-07 00:39 | 40.78504 | -73.54946 | 30097 ft | 534 kts | 40° |
| 2026-05-07 00:39 | 40.80983 | -73.51288 | 29286 ft | 535 kts | 40° |
| 2026-05-07 00:39 | 40.83451 | -73.47633 | 28396 ft | 533 kts | 40° |
| 2026-05-07 00:40 | 40.85905 | -73.43989 | 27531 ft | 529 kts | 40° |
| 2026-05-07 00:40 | 40.88332 | -73.40389 | 27037 ft | 518 kts | 40° |
| 2026-05-07 00:40 | 40.90701 | -73.36872 | 26816 ft | 508 kts | 40° |
| 2026-05-07 00:40 | 40.93056 | -73.33390 | 26860 ft | 505 kts | 40° |
| 2026-05-07 00:41 | 40.95392 | -73.29944 | 26813 ft | 504 kts | 40° |
| 2026-05-07 00:41 | 40.97713 | -73.26516 | 26616 ft | 495 kts | 40° |
| 2026-05-07 00:41 | 40.99981 | -73.23149 | 26362 ft | 485 kts | 40° |
| 2026-05-07 00:41 | 41.02207 | -73.19843 | 26118 ft | 479 kts | 40° |
| 2026-05-07 00:42 | 41.04426 | -73.16545 | 25878 ft | 477 kts | 40° |
| 2026-05-07 00:42 | 41.06610 | -73.13300 | 25648 ft | 475 kts | 40° |
| 2026-05-07 00:42 | 41.08804 | -73.10042 | 25393 ft | 473 kts | 39° |
| 2026-05-07 00:42 | 41.10989 | -73.06793 | 25158 ft | 469 kts | 40° |
| 2026-05-07 00:43 | 41.13154 | -73.03562 | 24699 ft | 469 kts | 40° |
| 2026-05-07 00:43 | 41.15324 | -73.00320 | 24225 ft | 470 kts | 40° |
| 2026-05-07 00:43 | 41.17496 | -72.97068 | 23725 ft | 471 kts | 40° |
| 2026-05-07 00:43 | 41.19671 | -72.93800 | 23130 ft | 473 kts | 42° |
| 2026-05-07 00:44 | 41.21596 | -72.90241 | 22809 ft | 476 kts | 54° |
| 2026-05-07 00:44 | 41.23114 | -72.86390 | 22689 ft | 468 kts | 58° |
| 2026-05-07 00:44 | 41.24580 | -72.82542 | 22438 ft | 463 kts | 58° |
| 2026-05-07 00:44 | 41.26035 | -72.78740 | 22184 ft | 460 kts | 58° |
| 2026-05-07 00:45 | 41.27482 | -72.74968 | 21911 ft | 457 kts | 58° |
| 2026-05-07 00:45 | 41.28905 | -72.71261 | 21652 ft | 454 kts | 59° |
| 2026-05-07 00:45 | 41.30330 | -72.67529 | 21445 ft | 451 kts | 59° |
| 2026-05-07 00:45 | 41.31739 | -72.63828 | 21196 ft | 447 kts | 60° |
| 2026-05-07 00:46 | 41.33138 | -72.60151 | 20917 ft | 445 kts | 60° |
| 2026-05-07 00:46 | 41.34532 | -72.56498 | 20844 ft | 441 kts | 60° |
| 2026-05-07 00:46 | 41.35924 | -72.52846 | 20860 ft | 442 kts | 60° |
| 2026-05-07 00:46 | 41.37307 | -72.49208 | 20859 ft | 442 kts | 60° |
| 2026-05-07 00:47 | 41.38699 | -72.45532 | 20858 ft | 442 kts | 60° |
| 2026-05-07 00:47 | 41.40073 | -72.41885 | 20859 ft | 442 kts | 60° |
| 2026-05-07 00:47 | 41.41441 | -72.38244 | 20859 ft | 442 kts | 60° |
| 2026-05-07 00:47 | 41.42820 | -72.34584 | 20857 ft | 443 kts | 60° |
| 2026-05-07 00:48 | 41.44202 | -72.30908 | 20856 ft | 442 kts | 60° |
| 2026-05-07 00:48 | 41.45577 | -72.27249 | 20855 ft | 442 kts | 60° |
| 2026-05-07 00:48 | 41.46956 | -72.23574 | 20837 ft | 442 kts | 60° |
| 2026-05-07 00:48 | 41.48307 | -72.19967 | 20837 ft | 443 kts | 60° |
| 2026-05-07 00:49 | 41.49673 | -72.16292 | 20570 ft | 441 kts | 61° |
| 2026-05-07 00:49 | 41.51004 | -72.12668 | 20339 ft | 438 kts | 62° |
| 2026-05-07 00:49 | 41.52324 | -72.09037 | 20103 ft | 435 kts | 62° |
| 2026-05-07 00:49 | 41.53639 | -72.05404 | 19851 ft | 432 kts | 62° |
| 2026-05-07 00:50 | 41.54942 | -72.01808 | 19609 ft | 429 kts | 62° |
| 2026-05-07 00:50 | 41.56215 | -71.98218 | 19373 ft | 427 kts | 64° |
| 2026-05-07 00:50 | 41.57387 | -71.94585 | 19138 ft | 425 kts | 67° |
| 2026-05-07 00:50 | 41.58476 | -71.90927 | 18904 ft | 423 kts | 69° |
| 2026-05-07 00:51 | 41.59520 | -71.87271 | 18676 ft | 420 kts | 70° |
| 2026-05-07 00:51 | 41.60546 | -71.83646 | 18449 ft | 417 kts | 70° |
| 2026-05-07 00:51 | 41.61582 | -71.80018 | 18215 ft | 414 kts | 70° |
| 2026-05-07 00:51 | 41.62622 | -71.76435 | 17975 ft | 412 kts | 69° |
| 2026-05-07 00:52 | 41.63665 | -71.72888 | 17711 ft | 410 kts | 69° |
| 2026-05-07 00:52 | 41.64695 | -71.69389 | 17448 ft | 409 kts | 69° |
| 2026-05-07 00:52 | 41.65734 | -71.65864 | 17178 ft | 407 kts | 69° |
| 2026-05-07 00:52 | 41.66773 | -71.62340 | 16928 ft | 405 kts | 69° |
| 2026-05-07 00:53 | 41.67794 | -71.58876 | 16667 ft | 396 kts | 69° |
| 2026-05-07 00:53 | 41.68781 | -71.55514 | 16447 ft | 391 kts | 69° |
| 2026-05-07 00:53 | 41.69772 | -71.52122 | 16176 ft | 391 kts | 70° |
| 2026-05-07 00:53 | 41.70766 | -71.48708 | 15844 ft | 388 kts | 70° |
| 2026-05-07 00:54 | 41.71745 | -71.45348 | 15519 ft | 386 kts | 70° |
| 2026-05-07 00:54 | 41.72637 | -71.42565 | 15244 ft | 385 kts | 62° |
| 2026-05-07 00:54 | 41.73944 | -71.39465 | 14911 ft | 383 kts | 59° |
| 2026-05-07 00:54 | 41.75271 | -71.36386 | 14641 ft | 381 kts | 59° |
| 2026-05-07 00:55 | 41.76591 | -71.33314 | 14396 ft | 380 kts | 59° |
| 2026-05-07 00:55 | 41.77906 | -71.30244 | 14163 ft | 379 kts | 59° |
| 2026-05-07 00:55 | 41.79213 | -71.27184 | 13932 ft | 377 kts | 59° |
| 2026-05-07 00:55 | 41.80504 | -71.24154 | 13634 ft | 373 kts | 59° |
| 2026-05-07 00:56 | 41.81783 | -71.21146 | 13209 ft | 371 kts | 59° |
| 2026-05-07 00:56 | 41.83057 | -71.18144 | 12903 ft | 366 kts | 59° |
| 2026-05-07 00:56 | 41.84302 | -71.15208 | 12632 ft | 360 kts | 59° |
| 2026-05-07 00:56 | 41.85540 | -71.12286 | 12252 ft | 359 kts | 59° |
| 2026-05-07 00:57 | 41.86771 | -71.09406 | 11961 ft | 354 kts | 59° |
| 2026-05-07 00:57 | 41.87990 | -71.06581 | 11716 ft | 348 kts | 58° |
| 2026-05-07 00:57 | 41.89231 | -71.03726 | 11570 ft | 347 kts | 58° |
| 2026-05-07 00:57 | 41.90431 | -71.00966 | 11415 ft | 346 kts | 58° |
| 2026-05-07 00:58 | 41.91635 | -70.98188 | 11266 ft | 345 kts | 58° |
| 2026-05-07 00:58 | 41.92835 | -70.95406 | 11111 ft | 343 kts | 58° |
| 2026-05-07 00:58 | 41.94014 | -70.92668 | 10953 ft | 342 kts | 58° |
| 2026-05-07 00:58 | 41.95207 | -70.89901 | 10805 ft | 341 kts | 58° |
| 2026-05-07 00:59 | 41.97585 | -70.84375 | 10493 ft | 343 kts | 59° |
| 2026-05-07 00:59 | 41.98774 | -70.81594 | 10341 ft | 343 kts | 59° |
| 2026-05-07 00:59 | 41.99965 | -70.78809 | 10204 ft | 342 kts | 59° |
| 2026-05-07 01:00 | 42.01211 | -70.76121 | 10031 ft | 336 kts | 50° |
| 2026-05-07 01:00 | 42.02731 | -70.73741 | 9691 ft | 335 kts | 45° |
| 2026-05-07 01:00 | 42.04285 | -70.71416 | 9348 ft | 332 kts | 45° |
| 2026-05-07 01:00 | 42.05818 | -70.69128 | 9037 ft | 329 kts | 45° |
| 2026-05-07 01:01 | 42.07348 | -70.66841 | 8736 ft | 326 kts | 45° |
| 2026-05-07 01:01 | 42.08860 | -70.64583 | 8405 ft | 323 kts | 44° |
| 2026-05-07 01:01 | 42.10544 | -70.62630 | 8101 ft | 315 kts | 28° |
| 2026-05-07 01:01 | 42.12469 | -70.61311 | 7800 ft | 306 kts | 13° |
| 2026-05-07 01:02 | 42.14498 | -70.60609 | 7524 ft | 300 kts | 4° |
| 2026-05-07 01:02 | 42.16533 | -70.60055 | 7251 ft | 298 kts | 5° |
| 2026-05-07 01:02 | 42.18564 | -70.59490 | 6959 ft | 296 kts | 5° |
| 2026-05-07 01:02 | 42.20580 | -70.58924 | 6685 ft | 295 kts | 6° |
| 2026-05-07 01:03 | 42.22587 | -70.58358 | 6397 ft | 293 kts | 5° |
| 2026-05-07 01:03 | 42.23937 | -70.57976 | 6207 ft | 292 kts | 5° |
| 2026-05-07 01:03 | 42.25914 | -70.57420 | 5916 ft | 291 kts | 6° |
| 2026-05-07 01:03 | 42.28363 | -70.56729 | 5573 ft | 289 kts | 6° |
| 2026-05-07 01:04 | 42.29606 | -70.56400 | 5396 ft | 286 kts | 1° |
| 2026-05-07 01:04 | 42.31595 | -70.56428 | 5125 ft | 274 kts | 342° |
| 2026-05-07 01:04 | 42.33368 | -70.57203 | 5009 ft | 265 kts | 326° |
| 2026-05-07 01:04 | 42.34871 | -70.58565 | 5016 ft | 254 kts | 311° |
| 2026-05-07 01:05 | 42.36142 | -70.60220 | 5033 ft | 255 kts | 310° |
| 2026-05-07 01:05 | 42.37420 | -70.61900 | 5020 ft | 257 kts | 310° |
| 2026-05-07 01:05 | 42.38687 | -70.63563 | 5017 ft | 257 kts | 310° |
| 2026-05-07 01:05 | 42.39972 | -70.65251 | 5016 ft | 257 kts | 310° |
| 2026-05-07 01:06 | 42.41262 | -70.66945 | 5009 ft | 258 kts | 310° |
| 2026-05-07 01:06 | 42.42546 | -70.68630 | 5008 ft | 258 kts | 310° |
| 2026-05-07 01:06 | 42.43747 | -70.70206 | 5007 ft | 258 kts | 310° |
| 2026-05-07 01:06 | 42.45037 | -70.71902 | 5007 ft | 258 kts | 310° |
| 2026-05-07 01:07 | 42.46345 | -70.73573 | 5007 ft | 260 kts | 315° |
| 2026-05-07 01:07 | 42.47989 | -70.74669 | 5003 ft | 273 kts | 343° |
| 2026-05-07 01:07 | 42.49918 | -70.74602 | 5003 ft | 286 kts | 11° |
| 2026-05-07 01:07 | 42.51693 | -70.73330 | 5004 ft | 295 kts | 38° |
| 2026-05-07 01:08 | 42.53148 | -70.71352 | 5008 ft | 298 kts | 45° |
| 2026-05-07 01:08 | 42.54544 | -70.69266 | 5007 ft | 299 kts | 46° |
| 2026-05-07 01:08 | 42.55951 | -70.67180 | 5006 ft | 297 kts | 41° |
| 2026-05-07 01:08 | 42.57657 | -70.65723 | 5008 ft | 287 kts | 13° |
| 2026-05-07 01:09 | 42.59581 | -70.65310 | 5013 ft | 279 kts | 358° |
| 2026-05-07 01:09 | 42.61441 | -70.65523 | 5002 ft | 257 kts | 337° |
| 2026-05-07 01:09 | 42.62969 | -70.66503 | 4996 ft | 232 kts | 316° |
| 2026-05-07 01:09 | 42.64014 | -70.68086 | 4997 ft | 222 kts | 293° |
| 2026-05-07 01:10 | 42.64466 | -70.70045 | 4999 ft | 216 kts | 271° |
| 2026-05-07 01:10 | 42.64283 | -70.72043 | 4999 ft | 215 kts | 249° |
| 2026-05-07 01:10 | 42.63691 | -70.73897 | 5017 ft | 209 kts | 246° |
| 2026-05-07 01:10 | 42.63116 | -70.75655 | 5013 ft | 201 kts | 247° |
| 2026-05-07 01:11 | 42.62555 | -70.77388 | 5010 ft | 199 kts | 247° |
| 2026-05-07 01:11 | 42.61998 | -70.79105 | 5010 ft | 198 kts | 246° |
| 2026-05-07 01:11 | 42.61442 | -70.80819 | 4881 ft | 199 kts | 247° |
| 2026-05-07 01:11 | 42.60888 | -70.82528 | 4633 ft | 196 kts | 247° |
| 2026-05-07 01:12 | 42.60344 | -70.84208 | 4457 ft | 195 kts | 246° |
| 2026-05-07 01:12 | 42.59797 | -70.85894 | 4314 ft | 195 kts | 246° |
| 2026-05-07 01:12 | 42.59315 | -70.87382 | 4190 ft | 192 kts | 246° |
| 2026-05-07 01:12 | 42.58685 | -70.88979 | 4051 ft | 194 kts | 234° |
| 2026-05-07 01:13 | 42.57647 | -70.90184 | 3864 ft | 201 kts | 213° |
| 2026-05-07 01:13 | 42.56334 | -70.90879 | 3609 ft | 203 kts | 205° |
| 2026-05-07 01:13 | 42.55005 | -70.91519 | 3369 ft | 200 kts | 206° |
| 2026-05-07 01:13 | 42.53723 | -70.92139 | 3127 ft | 193 kts | 205° |
| 2026-05-07 01:14 | 42.52459 | -70.92754 | 2897 ft | 186 kts | 206° |
| 2026-05-07 01:14 | 42.51267 | -70.93334 | 2693 ft | 178 kts | 207° |
| 2026-05-07 01:14 | 42.50139 | -70.93882 | 2637 ft | 173 kts | 208° |
| 2026-05-07 01:14 | 42.49014 | -70.94430 | 2445 ft | 169 kts | 210° |
| 2026-05-07 01:15 | 42.47920 | -70.94964 | 2241 ft | 167 kts | 207° |
| 2026-05-07 01:15 | 42.46835 | -70.95490 | 2028 ft | 165 kts | 206° |
| 2026-05-07 01:15 | 42.45829 | -70.95976 | 1828 ft | 147 kts | 206° |
| 2026-05-07 01:15 | 42.44880 | -70.96437 | 1631 ft | 141 kts | 206° |
| 2026-05-07 01:16 | 42.43968 | -70.96882 | 1440 ft | 140 kts | 205° |
| 2026-05-07 01:16 | 42.43076 | -70.97315 | 1249 ft | 138 kts | 204° |
| 2026-05-07 01:16 | 42.42180 | -70.97751 | 1054 ft | 138 kts | 203° |
| 2026-05-07 01:16 | 42.41275 | -70.98185 | 805 ft | 139 kts | 203° |
| 2026-05-07 01:17 | 42.40393 | -70.98638 | 679 ft | 134 kts | 202° |
| 2026-05-07 01:17 | 42.39501 | -70.99066 | 585 ft | 137 kts | 201° |
| 2026-05-07 01:17 | 42.38608 | -70.99489 | 334 ft | 137 kts | 200° |
| 2026-05-07 01:17 | 42.37720 | -70.99917 | 144 ft | 135 kts | 201° |
| 2026-05-07 01:18 | 42.36843 | -71.00347 | 27 ft | 131 kts | 201° |
| 2026-05-07 01:18 | 42.36315 | -71.00602 | 25 ft | 46 kts | 197° |
| 2026-05-07 01:18 | 42.36165 | -71.00712 | 26 ft | 21 kts | 235° |
| 2026-05-07 01:18 | 42.36177 | -71.00895 | 27 ft | 20 kts | 294° |
| 2026-05-07 01:19 | 42.36235 | -71.01070 | 29 ft | 20 kts | 295° |
| 2026-05-07 01:19 | 42.36247 | -71.01106 | 27 ft | 0 kts | 295° |
| 2026-05-07 01:20 | 42.36249 | -71.01112 | 27 ft | 1 kts | 295° |
| 2026-05-07 01:21 | 42.36255 | -71.01130 | 28 ft | 3 kts | 295° |
| 2026-05-07 01:21 | 42.36266 | -71.01159 | 26 ft | 4 kts | 297° |
| 2026-05-07 01:21 | 42.36282 | -71.01200 | 27 ft | 6 kts | 300° |
| 2026-05-07 01:21 | 42.36306 | -71.01251 | 26 ft | 7 kts | 302° |
| 2026-05-07 01:22 | 42.36334 | -71.01311 | 29 ft | 8 kts | 302° |
| 2026-05-07 01:22 | 42.36356 | -71.01386 | 27 ft | 9 kts | 270° |
| 2026-05-07 01:22 | 42.36345 | -71.01415 | 27 ft | 1 kts | 228° |
| 2026-05-07 01:22 | 42.36338 | -71.01422 | 29 ft | 2 kts | 216° |
| 2026-05-07 01:23 | 42.36322 | -71.01435 | 26 ft | 3 kts | 208° |
| 2026-05-07 01:23 | 42.36296 | -71.01451 | 25 ft | 5 kts | 202° |
| 2026-05-07 01:23 | 42.36261 | -71.01469 | 27 ft | 6 kts | 201° |
| 2026-05-07 01:23 | 42.36220 | -71.01489 | 28 ft | 7 kts | 199° |
| 2026-05-07 01:24 | 42.36173 | -71.01511 | 27 ft | 8 kts | 199° |
| 2026-05-07 01:24 | 42.36117 | -71.01538 | 25 ft | 9 kts | 200° |
| 2026-05-07 01:24 | 42.36051 | -71.01570 | 27 ft | 11 kts | 199° |
| 2026-05-07 01:24 | 42.35996 | -71.01596 | 25 ft | 2 kts | 199° |
| 2026-05-07 01:25 | 42.35979 | -71.01608 | 27 ft | 3 kts | 223° |